Time;durP1;ratioP1;P1;durP2;ratioP2;P2;SDS_P1;SDS_P2;PMS_P1;PMS_P2;Temp;Humidity;BMP_temperature;BMP_pressure;BME280_temperature;BME280_humidity;BME280_pressure;Samples;Min_cycle;Max_cycle;Signal;HPM_P1;HPM_P2
2022/05/02 00:00:24;;;;;;;;;;;21.10;50.30;;;;;;5075232;28;19925;-47
2022/05/02 00:02:51;;;;;;;;;;;21.10;50.30;;;;;;5075686;28;20288;-45
2022/05/02 00:05:18;;;;;;;;;;;21.00;50.20;;;;;;5079109;28;19955;-46
2022/05/02 00:07:45;;;;;;;;;;;21.10;50.30;;;;;;5096136;28;19928;-45
2022/05/02 00:10:13;;;;;;;;;;;21.00;50.20;;;;;;5078608;28;19933;-47
2022/05/02 00:12:40;;;;;;;;;;;21.00;50.20;;;;;;5075674;28;19931;-47
2022/05/02 00:15:08;;;;;;;;;;;21.10;50.30;;;;;;5075319;28;19937;-46
2022/05/02 00:20:20;;;;;;;;;;;21.10;50.30;;;;;;5075202;28;19925;-48
2022/05/02 00:22:47;;;;;;;;;;;21.00;50.30;;;;;;5075057;28;19924;-51
2022/05/02 00:25:14;;;;;;;;;;;21.00;50.20;;;;;;5074880;28;19970;-46
2022/05/02 00:27:42;;;;;;;;;;;21.00;50.30;;;;;;5087200;28;19982;-46
2022/05/02 00:30:10;;;;;;;;;;;21.00;50.30;;;;;;5095653;28;19939;-46
2022/05/02 00:32:38;;;;;;;;;;;21.00;50.30;;;;;;5095301;28;20389;-47
2022/05/02 00:35:05;;;;;;;;;;;21.00;50.20;;;;;;5095535;28;19932;-46
2022/05/02 00:37:32;;;;;;;;;;;21.00;50.20;;;;;;5094466;28;19932;-49
2022/05/02 00:39:59;;;;;;;;;;;21.00;50.20;;;;;;5094791;28;19925;-47
2022/05/02 00:42:26;;;;;;;;;;;21.00;50.20;;;;;;5095188;28;19939;-46
2022/05/02 00:44:53;;;;;;;;;;;21.00;50.20;;;;;;5094279;28;19928;-47
2022/05/02 00:47:20;;;;;;;;;;;21.00;50.20;;;;;;5094967;28;20303;-46
2022/05/02 00:49:50;;;;;;;;;;;21.00;50.20;;;;;;5094509;28;20438;-46
2022/05/02 00:52:18;;;;;;;;;;;21.00;50.30;;;;;;5094826;28;19924;-46
2022/05/02 00:54:45;;;;;;;;;;;21.00;50.20;;;;;;5084409;28;19928;-46
2022/05/02 00:57:13;;;;;;;;;;;21.00;50.30;;;;;;5074519;28;20345;-46
2022/05/02 00:59:40;;;;;;;;;;;21.00;50.30;;;;;;5090468;28;20331;-46
2022/05/02 01:02:09;;;;;;;;;;;21.00;50.30;;;;;;5083870;28;19924;-46
2022/05/02 01:04:36;;;;;;;;;;;21.00;50.30;;;;;;5094744;28;19928;-46
2022/05/02 01:07:11;;;;;;;;;;;21.00;50.30;;;;;;5094056;28;19924;-45
2022/05/02 01:09:39;;;;;;;;;;;21.00;50.20;;;;;;5082603;28;19967;-46
2022/05/02 01:12:07;;;;;;;;;;;21.00;50.30;;;;;;5073832;28;19970;-46
2022/05/02 01:14:34;;;;;;;;;;;21.00;50.30;;;;;;5074106;28;19925;-44
2022/05/02 01:17:02;;;;;;;;;;;21.00;50.30;;;;;;5074155;28;19924;-44
2022/05/02 01:19:30;;;;;;;;;;;21.00;50.30;;;;;;5056306;28;19928;-44
2022/05/02 01:21:57;;;;;;;;;;;21.00;50.30;;;;;;5074149;28;19931;-44
2022/05/02 01:24:33;;;;;;;;;;;21.00;50.30;;;;;;5089327;28;20334;-44
2022/05/02 01:27:01;;;;;;;;;;;21.00;50.30;;;;;;5094242;28;19977;-46
2022/05/02 01:29:29;;;;;;;;;;;21.00;50.30;;;;;;5094227;28;19923;-44
2022/05/02 01:31:56;;;;;;;;;;;21.00;50.30;;;;;;5094281;28;20342;-45
2022/05/02 01:34:24;;;;;;;;;;;21.00;50.30;;;;;;5094345;28;19969;-52
2022/05/02 01:36:50;;;;;;;;;;;21.00;50.30;;;;;;5093993;28;19928;-48
2022/05/02 01:39:17;;;;;;;;;;;21.00;50.30;;;;;;5094110;28;19924;-47
2022/05/02 01:41:44;;;;;;;;;;;21.00;50.30;;;;;;5094102;28;19989;-47
2022/05/02 01:44:12;;;;;;;;;;;21.00;50.30;;;;;;5093873;28;19925;-49
2022/05/02 01:46:39;;;;;;;;;;;21.00;50.30;;;;;;5094351;28;19931;-46
2022/05/02 01:49:06;;;;;;;;;;;21.00;50.30;;;;;;5093916;28;19932;-46
2022/05/02 01:51:33;;;;;;;;;;;21.00;50.30;;;;;;5093704;28;19924;-46
2022/05/02 01:54:00;;;;;;;;;;;21.00;50.30;;;;;;5093520;28;19947;-46
2022/05/02 01:56:27;;;;;;;;;;;21.00;50.30;;;;;;5093718;28;19924;-46
2022/05/02 01:58:55;;;;;;;;;;;21.00;50.30;;;;;;5092203;28;19931;-47
2022/05/02 02:01:22;;;;;;;;;;;21.00;50.30;;;;;;5093911;28;19928;-46
2022/05/02 02:03:49;;;;;;;;;;;21.00;50.30;;;;;;5093824;28;19930;-47
2022/05/02 02:06:16;;;;;;;;;;;21.00;50.30;;;;;;5093430;28;19931;-47
2022/05/02 02:08:43;;;;;;;;;;;21.00;50.30;;;;;;5089452;28;19932;-47
2022/05/02 02:11:10;;;;;;;;;;;21.00;50.20;;;;;;5073571;28;19925;-46
2022/05/02 02:13:38;;;;;;;;;;;21.00;50.30;;;;;;5072655;28;19970;-45
2022/05/02 02:16:07;;;;;;;;;;;21.00;50.30;;;;;;5073386;28;19933;-46
2022/05/02 02:18:36;;;;;;;;;;;21.00;50.30;;;;;;5073194;28;19925;-48
2022/05/02 02:21:03;;;;;;;;;;;21.00;50.20;;;;;;5085588;28;19959;-46
2022/05/02 02:23:30;;;;;;;;;;;21.00;50.20;;;;;;5092595;28;19928;-46
2022/05/02 02:25:57;;;;;;;;;;;21.00;50.20;;;;;;5093396;28;19931;-48
2022/05/02 02:28:24;;;;;;;;;;;21.00;50.20;;;;;;5093488;28;19925;-47
2022/05/02 02:30:51;;;;;;;;;;;21.00;50.80;;;;;;5093408;28;19947;-46
2022/05/02 02:33:18;;;;;;;;;;;21.00;50.30;;;;;;5093310;28;19924;-49
2022/05/02 02:35:45;;;;;;;;;;;21.00;50.20;;;;;;5093106;28;19928;-48
2022/05/02 02:38:12;;;;;;;;;;;21.00;50.30;;;;;;5093636;28;19977;-50
2022/05/02 02:40:40;;;;;;;;;;;21.00;50.30;;;;;;5093440;28;19928;-49
2022/05/02 02:43:09;;;;;;;;;;;21.00;50.20;;;;;;5092854;28;19924;-48
2022/05/02 02:45:36;;;;;;;;;;;21.00;50.30;;;;;;5093230;28;19928;-53
2022/05/02 02:48:03;;;;;;;;;;;21.00;50.30;;;;;;5093428;28;19924;-51
2022/05/02 02:50:30;;;;;;;;;;;21.00;50.30;;;;;;5092887;28;19924;-46
2022/05/02 02:52:57;;;;;;;;;;;21.00;50.30;;;;;;5093109;28;19927;-47
2022/05/02 02:55:24;;;;;;;;;;;21.00;50.30;;;;;;5091619;28;19924;-47
2022/05/02 02:57:51;;;;;;;;;;;21.00;50.30;;;;;;5092872;28;19924;-46
2022/05/02 03:00:18;;;;;;;;;;;21.00;50.30;;;;;;5092986;28;19927;-46
2022/05/02 03:02:46;;;;;;;;;;;21.00;50.30;;;;;;5092909;28;19932;-47
2022/05/02 03:07:58;;;;;;;;;;;21.00;50.30;;;;;;5092850;28;19962;-46
2022/05/02 03:10:26;;;;;;;;;;;21.00;50.30;;;;;;5092605;28;19969;-45
2022/05/02 03:12:54;;;;;;;;;;;21.00;50.30;;;;;;5092964;28;19964;-45
2022/05/02 03:15:22;;;;;;;;;;;21.00;50.30;;;;;;5092835;28;19924;-48
2022/05/02 03:17:49;;;;;;;;;;;21.00;50.30;;;;;;5092639;28;20379;-46
2022/05/02 03:20:16;;;;;;;;;;;21.00;50.30;;;;;;5093027;28;20060;-50
2022/05/02 03:22:43;;;;;;;;;;;21.00;50.30;;;;;;5092913;28;19924;-47
2022/05/02 03:25:10;;;;;;;;;;;21.00;50.30;;;;;;5092847;28;19931;-46
2022/05/02 03:27:37;;;;;;;;;;;21.00;50.90;;;;;;5092918;28;19925;-47
2022/05/02 03:30:04;;;;;;;;;;;21.00;50.30;;;;;;5093269;28;19924;-47
2022/05/02 03:32:31;;;;;;;;;;;21.00;50.30;;;;;;5092488;28;19928;-46
2022/05/02 03:34:58;;;;;;;;;;;21.00;50.30;;;;;;5093044;28;19974;-46
2022/05/02 03:37:25;;;;;;;;;;;21.00;50.30;;;;;;5096069;28;19924;-48
2022/05/02 03:39:52;;;;;;;;;;;21.00;50.30;;;;;;5095192;28;19924;-48
2022/05/02 03:42:19;;;;;;;;;;;21.00;50.30;;;;;;5096478;28;19928;-48
2022/05/02 03:44:46;;;;;;;;;;;21.00;50.30;;;;;;5096737;28;19935;-46
2022/05/02 03:47:13;;;;;;;;;;;21.00;50.40;;;;;;5096239;28;19928;-46
2022/05/02 03:49:40;;;;;;;;;;;21.00;50.30;;;;;;5077117;28;19924;-46
2022/05/02 03:52:07;;;;;;;;;;;21.00;50.40;;;;;;5095924;28;19924;-48
2022/05/02 03:54:34;;;;;;;;;;;21.00;50.30;;;;;;5078249;28;19924;-45
2022/05/02 03:57:01;;;;;;;;;;;21.00;50.30;;;;;;5096320;28;19978;-48
2022/05/02 03:59:29;;;;;;;;;;;21.00;50.30;;;;;;5095765;28;19924;-46
2022/05/02 04:01:56;;;;;;;;;;;21.00;50.30;;;;;;5096193;28;20335;-48
2022/05/02 04:04:23;;;;;;;;;;;21.00;50.90;;;;;;5095498;28;20387;-45
2022/05/02 04:06:50;;;;;;;;;;;21.00;50.30;;;;;;5095962;28;19928;-48
2022/05/02 04:09:17;;;;;;;;;;;21.00;50.30;;;;;;5077570;28;19974;-46
2022/05/02 04:11:44;;;;;;;;;;;21.00;50.30;;;;;;5095944;28;19973;-46
2022/05/02 04:14:11;;;;;;;;;;;21.00;50.30;;;;;;5095674;28;19930;-47
2022/05/02 04:16:38;;;;;;;;;;;21.00;50.80;;;;;;5076892;28;19924;-46
2022/05/02 04:19:06;;;;;;;;;;;21.00;50.20;;;;;;5095764;28;19930;-47
2022/05/02 04:21:33;;;;;;;;;;;21.00;50.30;;;;;;5095349;28;19924;-46
2022/05/02 04:24:00;;;;;;;;;;;21.00;50.20;;;;;;5095016;28;20007;-47
2022/05/02 04:26:27;;;;;;;;;;;21.00;50.20;;;;;;5095340;28;19924;-47
2022/05/02 04:28:54;;;;;;;;;;;21.00;50.20;;;;;;5095423;28;19924;-46
2022/05/02 04:31:21;;;;;;;;;;;21.00;50.20;;;;;;5077044;28;19924;-46
2022/05/02 04:33:48;;;;;;;;;;;21.10;50.20;;;;;;5095583;28;20288;-48
2022/05/02 04:36:15;;;;;;;;;;;21.10;50.20;;;;;;5095377;28;19931;-47
2022/05/02 04:38:42;;;;;;;;;;;21.10;50.20;;;;;;5095010;28;19947;-47
2022/05/02 04:41:13;;;;;;;;;;;21.10;50.20;;;;;;5095130;28;19924;-47
2022/05/02 04:43:41;;;;;;;;;;;21.10;50.20;;;;;;5094954;28;20406;-48
2022/05/02 04:46:08;;;;;;;;;;;21.10;50.20;;;;;;5093062;28;19936;-48
2022/05/02 04:48:35;;;;;;;;;;;21.00;50.00;;;;;;5093955;28;19935;-48
2022/05/02 04:51:02;;;;;;;;;;;21.10;50.10;;;;;;5094731;28;19924;-48
2022/05/02 04:53:29;;;;;;;;;;;21.10;50.10;;;;;;5095050;28;19928;-53
2022/05/02 04:55:56;;;;;;;;;;;21.10;50.10;;;;;;5094764;28;19928;-50
2022/05/02 04:58:24;;;;;;;;;;;21.10;50.00;;;;;;5094524;28;20410;-50
2022/05/02 05:00:52;;;;;;;;;;;21.10;50.60;;;;;;5094780;28;19924;-52
2022/05/02 05:03:20;;;;;;;;;;;21.10;50.00;;;;;;5094686;28;20379;-54
2022/05/02 05:05:48;;;;;;;;;;;21.20;50.00;;;;;;5094632;28;20416;-53
2022/05/02 05:08:15;;;;;;;;;;;21.20;49.90;;;;;;5094312;28;20399;-52
2022/05/02 05:10:53;;;;;;;;;;;21.20;49.90;;;;;;5094876;28;20307;-54
2022/05/02 05:13:23;;;;;;;;;;;21.20;49.80;;;;;;5094177;28;19932;-54
2022/05/02 05:18:50;;;;;;;;;;;21.20;49.80;;;;;;5094282;28;19927;-52
2022/05/02 05:21:34;;;;;;;;;;;21.30;49.80;;;;;;5094487;28;19931;-54
2022/05/02 05:24:13;;;;;;;;;;;21.20;49.80;;;;;;5093812;28;19924;-52
2022/05/02 05:26:40;;;;;;;;;;;21.30;49.80;;;;;;5094423;28;19928;-51
2022/05/02 05:29:16;;;;;;;;;;;21.30;49.80;;;;;;5093942;28;19924;-48
2022/05/02 05:31:52;;;;;;;;;;;21.30;49.80;;;;;;5093831;28;19924;-49
2022/05/02 05:34:25;;;;;;;;;;;21.20;49.70;;;;;;5093870;28;20409;-50
2022/05/02 05:36:55;;;;;;;;;;;21.20;49.70;;;;;;5093855;28;19924;-45
2022/05/02 05:39:41;;;;;;;;;;;21.20;49.70;;;;;;5094072;28;19924;-49
2022/05/02 05:42:15;;;;;;;;;;;21.30;49.80;;;;;;5092938;28;19931;-49
2022/05/02 05:44:42;;;;;;;;;;;21.30;49.80;;;;;;5074117;28;19924;-49
2022/05/02 05:47:15;;;;;;;;;;;21.30;49.80;;;;;;5073778;28;19972;-47
2022/05/02 05:50:07;;;;;;;;;;;21.30;49.70;;;;;;5073717;28;19928;-53
2022/05/02 05:52:37;;;;;;;;;;;21.30;49.70;;;;;;5063039;28;19924;-50
2022/05/02 05:55:09;;;;;;;;;;;21.30;49.70;;;;;;5073468;28;19931;-46
2022/05/02 05:57:39;;;;;;;;;;;21.30;49.70;;;;;;5090470;28;20411;-49
2022/05/02 06:00:11;;;;;;;;;;;21.30;49.70;;;;;;5092994;28;19932;-50
2022/05/02 06:02:46;;;;;;;;;;;21.30;49.70;;;;;;5093578;28;19930;-47
2022/05/02 06:05:14;;;;;;;;;;;21.30;49.70;;;;;;5087869;28;19924;-46
2022/05/02 06:07:42;;;;;;;;;;;21.30;49.70;;;;;;5073137;28;20007;-48
2022/05/02 06:10:09;;;;;;;;;;;21.30;49.70;;;;;;5073086;28;19931;-45
2022/05/02 06:12:38;;;;;;;;;;;21.30;49.60;;;;;;5084112;28;19943;-45
2022/05/02 06:20:39;;;;;;;;;;;21.40;49.70;;;;;;5093112;28;19932;-48
2022/05/02 06:23:10;;;;;;;;;;;21.40;49.70;;;;;;5093584;28;19993;-53
2022/05/02 06:25:37;;;;;;;;;;;21.40;49.70;;;;;;5093420;28;20014;-52
2022/05/02 06:28:05;;;;;;;;;;;21.40;49.60;;;;;;5093231;28;19924;-51
2022/05/02 06:30:34;;;;;;;;;;;21.30;49.60;;;;;;5093319;28;20264;-50
2022/05/02 06:33:05;;;;;;;;;;;21.40;49.70;;;;;;5093567;28;20039;-46
2022/05/02 06:35:35;;;;;;;;;;;21.40;49.60;;;;;;5093542;28;19935;-50
2022/05/02 06:38:10;;;;;;;;;;;21.40;49.60;;;;;;5093283;28;20379;-46
2022/05/02 06:40:41;;;;;;;;;;;21.40;49.60;;;;;;5091336;28;19928;-49
2022/05/02 06:43:08;;;;;;;;;;;21.40;49.60;;;;;;5093197;28;19924;-47
2022/05/02 06:45:55;;;;;;;;;;;21.30;49.60;;;;;;5092943;28;19931;-50
2022/05/02 06:48:34;;;;;;;;;;;21.40;49.60;;;;;;5092775;28;19924;-49
2022/05/02 06:51:06;;;;;;;;;;;21.40;49.70;;;;;;5093102;28;19924;-47
2022/05/02 06:53:53;;;;;;;;;;;21.40;49.60;;;;;;5093478;28;20260;-48
2022/05/02 06:56:32;;;;;;;;;;;21.40;49.60;;;;;;5093183;28;19939;-49
2022/05/02 06:59:25;;;;;;;;;;;21.40;49.60;;;;;;5093313;28;20334;-48
2022/05/02 07:01:59;;;;;;;;;;;21.40;49.60;;;;;;5083897;28;20590;-49
2022/05/02 07:04:33;;;;;;;;;;;21.40;49.50;;;;;;5072630;28;20015;-48
2022/05/02 07:07:11;;;;;;;;;;;21.40;49.50;;;;;;5072607;28;19931;-50
2022/05/02 07:09:52;;;;;;;;;;;21.40;49.50;;;;;;5089496;28;19928;-48
2022/05/02 07:12:23;;;;;;;;;;;21.40;49.50;;;;;;5096614;28;19931;-49
2022/05/02 07:15:04;;;;;;;;;;;21.40;49.50;;;;;;5096937;28;19931;-50
2022/05/02 07:17:47;;;;;;;;;;;21.40;49.50;;;;;;5096858;28;19932;-51
2022/05/02 07:20:33;;;;;;;;;;;21.40;49.40;;;;;;5096472;28;20379;-49
2022/05/02 07:23:02;;;;;;;;;;;21.40;49.40;;;;;;5096612;28;19924;-51
2022/05/02 07:25:30;;;;;;;;;;;21.50;49.40;;;;;;5096848;28;19924;-52
2022/05/02 07:28:15;;;;;;;;;;;21.50;49.40;;;;;;5096590;28;19950;-53
2022/05/02 07:30:42;;;;;;;;;;;21.50;49.30;;;;;;5096953;28;19924;-50
2022/05/02 07:33:10;;;;;;;;;;;21.60;49.20;;;;;;5096362;28;19971;-49
2022/05/02 07:35:38;;;;;;;;;;;21.60;49.10;;;;;;5094949;28;20363;-48
2022/05/02 07:38:06;;;;;;;;;;;21.60;49.00;;;;;;5096697;28;20343;-47
2022/05/02 07:40:34;;;;;;;;;;;21.70;49.00;;;;;;5096211;28;19927;-47
2022/05/02 07:43:02;;;;;;;;;;;21.70;48.90;;;;;;5096280;28;19924;-48
2022/05/02 07:45:29;;;;;;;;;;;21.70;48.90;;;;;;5096237;28;19924;-49
2022/05/02 07:47:58;;;;;;;;;;;21.70;48.80;;;;;;5095804;28;19928;-46
2022/05/02 07:50:25;;;;;;;;;;;21.70;48.80;;;;;;5075533;28;20424;-46
2022/05/02 07:52:55;;;;;;;;;;;21.80;48.80;;;;;;5075645;28;19936;-48
2022/05/02 07:55:22;;;;;;;;;;;21.80;48.80;;;;;;5075195;28;19924;-50
2022/05/02 07:57:51;;;;;;;;;;;21.80;48.80;;;;;;5088083;28;19932;-52
2022/05/02 08:00:18;;;;;;;;;;;21.80;48.70;;;;;;5075928;28;19951;-47
2022/05/02 08:02:46;;;;;;;;;;;21.80;48.70;;;;;;5075512;28;19924;-48
2022/05/02 08:05:18;;;;;;;;;;;21.80;48.70;;;;;;5086839;28;19964;-50
2022/05/02 08:07:45;;;;;;;;;;;21.80;48.70;;;;;;5096023;28;19947;-46
2022/05/02 08:10:32;;;;;;;;;;;21.80;48.70;;;;;;5078667;28;19978;-51
2022/05/02 08:13:03;;;;;;;;;;;21.80;48.70;;;;;;5075635;28;19925;-50
2022/05/02 08:15:41;;;;;;;;;;;21.80;48.70;;;;;;5075303;28;19928;-52
2022/05/02 08:18:20;;;;;;;;;;;21.80;48.70;;;;;;5075388;28;19928;-46
2022/05/02 08:21:16;;;;;;;;;;;21.80;48.60;;;;;;5084601;28;19928;-51
2022/05/02 08:29:50;;;;;;;;;;;21.80;48.60;;;;;;4992826;28;20434;-49
2022/05/02 08:32:17;;;;;;;;;;;21.80;48.60;;;;;;5004035;28;19929;-50
2022/05/02 08:34:45;;;;;;;;;;;21.80;48.60;;;;;;5013024;28;19925;-48
2022/05/02 08:37:22;;;;;;;;;;;21.90;48.60;;;;;;5012436;28;20460;-47
2022/05/02 08:39:56;;;;;;;;;;;21.90;48.60;;;;;;5013205;28;19925;-48
2022/05/02 08:42:26;;;;;;;;;;;21.90;48.60;;;;;;5012461;28;19931;-47
2022/05/02 08:44:59;;;;;;;;;;;21.90;48.60;;;;;;5012746;28;19926;-48
2022/05/02 08:47:29;;;;;;;;;;;22.00;48.60;;;;;;5012771;28;20024;-48
2022/05/02 08:50:14;;;;;;;;;;;22.00;48.60;;;;;;5012795;28;19933;-50
2022/05/02 08:52:52;;;;;;;;;;;22.00;48.60;;;;;;5012748;28;19926;-48
2022/05/02 08:55:31;;;;;;;;;;;22.00;48.60;;;;;;5012705;28;20390;-49
2022/05/02 08:57:58;;;;;;;;;;;22.00;48.50;;;;;;5012311;28;20278;-46
2022/05/02 09:00:48;;;;;;;;;;;22.10;48.50;;;;;;5034831;28;19939;-50
2022/05/02 09:03:18;;;;;;;;;;;22.00;48.40;;;;;;5032429;28;19925;-47
2022/05/02 09:05:58;;;;;;;;;;;22.10;48.40;;;;;;5032258;28;20376;-49
2022/05/02 09:08:43;;;;;;;;;;;22.10;48.30;;;;;;5030384;28;19925;-49
2022/05/02 09:11:10;;;;;;;;;;;22.10;48.30;;;;;;5012427;28;19925;-52
2022/05/02 09:13:40;;;;;;;;;;;22.10;48.20;;;;;;5012186;28;19933;-48
2022/05/02 09:16:25;;;;;;;;;;;22.20;48.20;;;;;;5012566;28;19926;-50
2022/05/02 09:19:04;;;;;;;;;;;22.20;48.20;;;;;;5012399;28;19925;-46
2022/05/02 09:21:35;;;;;;;;;;;22.20;48.10;;;;;;5012155;28;19926;-47
2022/05/02 09:24:20;;;;;;;;;;;22.30;48.10;;;;;;5012034;28;19932;-53
2022/05/02 09:26:57;;;;;;;;;;;22.30;48.10;;;;;;5012155;28;20012;-49
2022/05/02 09:29:43;;;;;;;;;;;22.30;48.00;;;;;;5048458;28;20098;-51
2022/05/02 09:32:17;;;;;;;;;;;22.30;48.00;;;;;;5051736;28;20000;-53
2022/05/02 09:35:03;;;;;;;;;;;22.30;48.00;;;;;;5050993;28;19988;-54
2022/05/02 09:37:40;;;;;;;;;;;22.30;48.00;;;;;;5031715;28;19929;-47
2022/05/02 09:40:12;;;;;;;;;;;22.30;48.00;;;;;;5049763;28;19931;-51
2022/05/02 09:42:54;;;;;;;;;;;22.30;48.10;;;;;;5089197;28;19925;-46
2022/05/02 09:51:22;;;;;;;;;;;22.40;48.00;;;;;;5091985;28;19931;-48
2022/05/02 09:54:00;;;;;;;;;;;22.40;48.00;;;;;;5095951;28;19924;-49
2022/05/02 09:56:38;;;;;;;;;;;22.40;48.00;;;;;;5106174;28;20295;-47
2022/05/02 09:59:09;;;;;;;;;;;22.40;48.00;;;;;;5097886;28;19924;-47
2022/05/02 10:01:42;;;;;;;;;;;22.30;47.90;;;;;;5100019;28;19931;-49
2022/05/02 10:04:21;;;;;;;;;;;22.40;48.00;;;;;;5110338;28;19969;-50
2022/05/02 10:06:50;;;;;;;;;;;22.40;48.00;;;;;;5107112;28;20272;-48
2022/05/02 10:09:27;;;;;;;;;;;22.40;48.00;;;;;;5097075;28;19924;-48
2022/05/02 10:11:57;;;;;;;;;;;22.40;48.00;;;;;;5103154;28;19932;-50
2022/05/02 10:14:43;;;;;;;;;;;22.40;48.00;;;;;;5091922;28;19924;-49
2022/05/02 10:17:17;;;;;;;;;;;22.40;48.00;;;;;;5098421;28;19924;-47
2022/05/02 10:19:44;;;;;;;;;;;22.40;48.00;;;;;;5097529;28;19932;-48
2022/05/02 10:22:23;;;;;;;;;;;22.40;48.00;;;;;;5097469;28;19924;-48
2022/05/02 10:25:08;;;;;;;;;;;22.40;48.00;;;;;;5093853;28;20407;-52
2022/05/02 10:27:35;;;;;;;;;;;22.40;48.00;;;;;;5103185;28;20371;-51
2022/05/02 10:30:02;;;;;;;;;;;22.40;47.90;;;;;;5098694;28;19931;-48
2022/05/02 10:32:50;;;;;;;;;;;22.40;47.90;;;;;;5109498;28;20375;-46
2022/05/02 10:35:18;;;;;;;;;;;22.40;47.90;;;;;;5082567;28;19928;-47
2022/05/02 10:37:57;;;;;;;;;;;22.40;47.90;;;;;;5101404;28;20295;-47
2022/05/02 10:40:36;;;;;;;;;;;22.50;47.90;;;;;;5109600;28;20279;-46
2022/05/02 10:43:05;;;;;;;;;;;22.40;47.80;;;;;;5099141;28;20406;-48
2022/05/02 10:45:38;;;;;;;;;;;22.50;47.80;;;;;;5105041;28;19924;-54
2022/05/02 10:48:22;;;;;;;;;;;22.50;47.80;;;;;;5095024;28;19925;-48
2022/05/02 10:51:11;;;;;;;;;;;22.50;47.80;;;;;;5091165;28;20292;-54
2022/05/02 10:53:39;;;;;;;;;;;22.50;47.80;;;;;;5097191;28;20408;-49
2022/05/02 10:56:09;;;;;;;;;;;22.50;47.80;;;;;;5096961;28;20383;-49
2022/05/02 10:58:38;;;;;;;;;;;22.50;47.80;;;;;;5097300;28;19931;-49
2022/05/02 11:01:05;;;;;;;;;;;22.50;47.80;;;;;;5097121;28;19931;-49
2022/05/02 11:03:47;;;;;;;;;;;22.50;47.80;;;;;;5097115;28;19939;-49
2022/05/02 11:06:26;;;;;;;;;;;22.50;47.90;;;;;;5097247;28;19928;-52
2022/05/02 11:09:01;;;;;;;;;;;22.50;47.90;;;;;;5096451;28;19924;-47
2022/05/02 11:11:46;;;;;;;;;;;22.50;47.90;;;;;;5096614;28;19936;-49
2022/05/02 11:14:24;;;;;;;;;;;22.50;47.90;;;;;;5096838;28;19928;-50
2022/05/02 11:17:09;;;;;;;;;;;22.50;48.00;;;;;;5096683;28;19924;-49
2022/05/02 11:22:31;;;;;;;;;;;22.50;48.00;;;;;;5076204;28;19925;-48
2022/05/02 11:25:01;;;;;;;;;;;22.50;47.90;;;;;;5076371;28;19929;-51
2022/05/02 11:27:28;;;;;;;;;;;22.50;47.90;;;;;;5076498;28;19952;-54
2022/05/02 11:30:06;;;;;;;;;;;22.50;47.90;;;;;;5076386;28;19928;-51
2022/05/02 11:32:56;;;;;;;;;;;22.50;47.90;;;;;;5076453;28;19929;-54
2022/05/02 11:35:30;;;;;;;;;;;22.50;47.90;;;;;;5014250;28;19925;-52
2022/05/02 11:38:07;;;;;;;;;;;22.50;48.00;;;;;;5014360;28;20345;-49
2022/05/02 11:40:52;;;;;;;;;;;22.50;48.00;;;;;;5013958;28;19931;-49
2022/05/02 11:43:23;;;;;;;;;;;22.50;48.10;;;;;;5024586;28;19925;-50
2022/05/02 11:46:10;;;;;;;;;;;22.40;48.20;;;;;;5033963;28;19925;-49
2022/05/02 11:48:45;;;;;;;;;;;22.40;48.20;;;;;;5033967;28;20400;-48
2022/05/02 11:51:19;;;;;;;;;;;22.40;48.30;;;;;;5033763;28;20028;-55
2022/05/02 11:53:48;;;;;;;;;;;22.40;48.40;;;;;;5033725;28;20274;-46
2022/05/02 11:56:16;;;;;;;;;;;22.30;48.40;;;;;;5032738;28;19925;-51
2022/05/02 11:58:45;;;;;;;;;;;22.30;48.40;;;;;;5033778;28;19925;-47
2022/05/02 12:01:16;;;;;;;;;;;22.30;48.50;;;;;;5033737;28;19932;-47
2022/05/02 12:03:43;;;;;;;;;;;22.30;48.50;;;;;;5033183;28;19969;-48
2022/05/02 12:06:14;;;;;;;;;;;22.30;48.50;;;;;;5033624;28;19932;-48
2022/05/02 12:08:44;;;;;;;;;;;22.30;48.60;;;;;;5033349;28;20380;-52
2022/05/02 12:11:12;;;;;;;;;;;22.20;48.50;;;;;;5034056;28;19925;-49
2022/05/02 12:13:47;;;;;;;;;;;22.30;48.60;;;;;;5094978;28;19939;-53
2022/05/02 12:16:15;;;;;;;;;;;22.20;48.60;;;;;;5093616;28;19925;-53
2022/05/02 12:18:44;;;;;;;;;;;22.20;48.60;;;;;;5095941;28;19924;-54
2022/05/02 12:21:31;;;;;;;;;;;22.20;48.70;;;;;;5095681;28;20280;-52
2022/05/02 12:23:59;;;;;;;;;;;22.20;48.70;;;;;;5095330;28;19928;-47
2022/05/02 12:26:27;;;;;;;;;;;22.20;48.70;;;;;;5095470;28;20291;-50
2022/05/02 12:29:00;;;;;;;;;;;22.20;48.70;;;;;;5095148;28;19924;-48
2022/05/02 12:31:29;;;;;;;;;;;22.10;48.70;;;;;;5095720;28;19924;-51
2022/05/02 12:33:59;;;;;;;;;;;22.10;48.80;;;;;;5095356;28;20040;-48
2022/05/02 12:36:49;;;;;;;;;;;22.10;48.80;;;;;;5095487;28;19931;-52
2022/05/02 12:39:35;;;;;;;;;;;22.10;48.80;;;;;;5086765;28;20335;-48
2022/05/02 12:42:15;;;;;;;;;;;22.10;48.80;;;;;;5075069;28;19924;-47
2022/05/02 12:44:57;;;;;;;;;;;22.10;48.80;;;;;;5075163;28;20303;-53
2022/05/02 12:47:25;;;;;;;;;;;22.10;48.80;;;;;;5074869;28;20344;-46
2022/05/02 12:50:00;;;;;;;;;;;22.10;48.80;;;;;;5089428;28;20375;-48
2022/05/02 12:52:28;;;;;;;;;;;22.10;48.80;;;;;;5094491;28;19928;-49
2022/05/02 12:54:56;;;;;;;;;;;22.10;48.80;;;;;;5094561;28;19931;-48
2022/05/02 13:00:31;;;;;;;;;;;22.10;48.90;;;;;;5094859;28;19930;-47
2022/05/02 13:02:59;;;;;;;;;;;22.00;48.80;;;;;;5095050;28;19989;-48
2022/05/02 13:05:29;;;;;;;;;;;22.00;48.80;;;;;;5076976;28;20354;-47
2022/05/02 13:07:57;;;;;;;;;;;22.00;48.80;;;;;;5094882;28;19932;-51
2022/05/02 13:10:25;;;;;;;;;;;22.10;48.90;;;;;;5076129;28;19924;-48
2022/05/02 13:13:13;;;;;;;;;;;22.10;48.80;;;;;;5079233;28;19924;-50
2022/05/02 13:15:44;;;;;;;;;;;22.10;48.80;;;;;;5094604;28;19930;-46
2022/05/02 13:18:16;;;;;;;;;;;22.10;48.70;;;;;;5094650;28;20295;-47
2022/05/02 13:21:15;;;;;;;;;;;22.10;48.70;;;;;;5094304;28;19954;-47
2022/05/02 13:23:44;;;;;;;;;;;22.20;48.70;;;;;;5083754;28;20360;-48
2022/05/02 13:26:27;;;;;;;;;;;22.20;48.60;;;;;;5094589;28;19939;-47
2022/05/02 13:29:08;;;;;;;;;;;22.20;48.60;;;;;;5094060;28;19928;-50
2022/05/02 13:31:35;;;;;;;;;;;22.20;48.50;;;;;;5076479;28;20027;-50
2022/05/02 13:34:05;;;;;;;;;;;22.30;48.50;;;;;;5093820;28;19973;-48
2022/05/02 13:36:40;;;;;;;;;;;22.30;48.50;;;;;;5077154;28;19924;-49
2022/05/02 13:39:21;;;;;;;;;;;22.30;48.40;;;;;;5073769;28;19924;-52
2022/05/02 13:42:09;;;;;;;;;;;22.20;48.40;;;;;;5073828;28;19924;-48
2022/05/02 13:44:44;;;;;;;;;;;22.20;48.40;;;;;;5076458;28;19928;-48
2022/05/02 13:47:18;;;;;;;;;;;22.20;48.50;;;;;;5093666;28;20011;-46
2022/05/02 13:49:56;;;;;;;;;;;22.20;48.50;;;;;;5093821;28;19963;-46
2022/05/02 13:52:27;;;;;;;;;;;22.10;48.50;;;;;;5094117;28;19924;-47
2022/05/02 13:55:33;;;;;;;;;;;22.10;48.60;;;;;;5058500;28;19985;-49
2022/05/02 13:58:21;;;;;;;;;;;22.10;48.60;;;;;;5065755;28;19974;-49
2022/05/02 14:03:45;;;;;;;;;;;22.10;48.80;;;;;;5093161;28;19924;-49
2022/05/02 14:06:14;;;;;;;;;;;22.10;48.80;;;;;;5093811;28;19924;-50
2022/05/02 14:08:42;;;;;;;;;;;22.00;48.70;;;;;;5091499;28;19924;-48
2022/05/02 14:11:19;;;;;;;;;;;22.00;48.80;;;;;;5093776;28;19928;-47
2022/05/02 14:13:49;;;;;;;;;;;22.00;48.80;;;;;;5075886;28;19931;-48
2022/05/02 14:16:17;;;;;;;;;;;22.00;48.80;;;;;;5093646;28;19960;-49
2022/05/02 14:18:47;;;;;;;;;;;22.00;48.80;;;;;;5093270;28;20307;-48
2022/05/02 14:21:14;;;;;;;;;;;22.00;48.80;;;;;;5093138;28;19928;-47
2022/05/02 14:23:45;;;;;;;;;;;22.00;48.70;;;;;;5093207;28;19924;-51
2022/05/02 14:26:12;;;;;;;;;;;22.10;48.80;;;;;;5093803;28;19993;-46
2022/05/02 14:28:47;;;;;;;;;;;22.10;48.80;;;;;;5093475;28;19928;-46
2022/05/02 14:31:14;;;;;;;;;;;22.10;48.70;;;;;;5093360;28;20276;-45
2022/05/02 14:33:42;;;;;;;;;;;22.10;48.70;;;;;;5093525;28;19954;-46
2022/05/02 14:36:10;;;;;;;;;;;22.10;48.70;;;;;;5093384;28;19928;-49
2022/05/02 14:38:38;;;;;;;;;;;22.10;48.70;;;;;;5093738;28;19924;-46
2022/05/02 14:41:06;;;;;;;;;;;22.10;48.80;;;;;;5093300;28;19931;-49
2022/05/02 14:43:34;;;;;;;;;;;22.00;48.70;;;;;;5092862;28;19928;-47
2022/05/02 14:46:03;;;;;;;;;;;22.00;48.80;;;;;;5093400;28;19931;-51
2022/05/02 14:48:30;;;;;;;;;;;22.00;48.80;;;;;;5093224;28;19961;-49
2022/05/02 14:51:09;;;;;;;;;;;22.00;49.50;;;;;;5093327;28;19924;-47
2022/05/02 14:53:41;;;;;;;;;;;22.00;48.90;;;;;;5092542;28;19931;-50
2022/05/02 14:56:09;;;;;;;;;;;21.90;48.90;;;;;;5093038;28;20286;-47
2022/05/02 14:58:37;;;;;;;;;;;21.90;48.90;;;;;;5092888;28;19925;-47
2022/05/02 15:01:08;;;;;;;;;;;21.90;48.90;;;;;;5093354;28;20299;-48
2022/05/02 15:03:40;;;;;;;;;;;21.90;49.00;;;;;;5093195;28;20350;-49
2022/05/02 15:06:07;;;;;;;;;;;21.90;49.00;;;;;;5091375;28;19931;-47
2022/05/02 15:08:54;;;;;;;;;;;21.90;49.00;;;;;;5089908;28;19931;-50
2022/05/02 15:11:28;;;;;;;;;;;21.90;49.00;;;;;;5072631;28;19931;-46
2022/05/02 15:14:15;;;;;;;;;;;21.80;49.00;;;;;;5072928;28;19956;-51
2022/05/02 15:16:42;;;;;;;;;;;21.80;49.00;;;;;;5072492;28;20303;-54